sensor_id;sensor_type;location;lat;lon;timestamp;P1;durP1;ratioP1;P2;durP2;ratioP2
54993;SDS011;40891;47.242;8.648;2022-12-29T00:01:16;1.70;;;0.83;;
54993;SDS011;40891;47.242;8.648;2022-12-29T00:03:41;1.67;;;0.90;;
54993;SDS011;40891;47.242;8.648;2022-12-29T00:06:06;1.27;;;0.90;;
54993;SDS011;40891;47.242;8.648;2022-12-29T00:08:32;1.97;;;0.90;;
54993;SDS011;40891;47.242;8.648;2022-12-29T00:11:07;3.57;;;0.90;;
54993;SDS011;40891;47.242;8.648;2022-12-29T00:13:34;1.30;;;0.70;;
54993;SDS011;40891;47.242;8.648;2022-12-29T00:16:18;1.03;;;0.87;;
54993;SDS011;40891;47.242;8.648;2022-12-29T00:18:44;0.70;;;0.70;;
54993;SDS011;40891;47.242;8.648;2022-12-29T00:21:19;1.30;;;1.00;;
54993;SDS011;40891;47.242;8.648;2022-12-29T00:24:04;1.40;;;0.90;;
54993;SDS011;40891;47.242;8.648;2022-12-29T00:26:39;1.57;;;1.17;;
54993;SDS011;40891;47.242;8.648;2022-12-29T00:29:24;2.33;;;0.90;;
54993;SDS011;40891;47.242;8.648;2022-12-29T00:32:09;1.27;;;0.87;;
54993;SDS011;40891;47.242;8.648;2022-12-29T00:34:53;1.80;;;0.90;;
54993;SDS011;40891;47.242;8.648;2022-12-29T00:37:40;1.17;;;0.70;;
54993;SDS011;40891;47.242;8.648;2022-12-29T00:40:27;1.43;;;0.80;;
54993;SDS011;40891;47.242;8.648;2022-12-29T00:43:11;2.63;;;1.20;;
54993;SDS011;40891;47.242;8.648;2022-12-29T00:45:55;0.70;;;0.67;;
54993;SDS011;40891;47.242;8.648;2022-12-29T00:48:20;2.03;;;1.00;;
54993;SDS011;40891;47.242;8.648;2022-12-29T00:51:04;2.30;;;1.00;;
54993;SDS011;40891;47.242;8.648;2022-12-29T00:53:30;1.30;;;0.70;;
54993;SDS011;40891;47.242;8.648;2022-12-29T00:55:55;1.37;;;0.70;;
54993;SDS011;40891;47.242;8.648;2022-12-29T00:58:20;1.77;;;1.00;;
54993;SDS011;40891;47.242;8.648;2022-12-29T01:00:46;1.10;;;0.83;;
54993;SDS011;40891;47.242;8.648;2022-12-29T01:03:11;1.80;;;0.90;;
54993;SDS011;40891;47.242;8.648;2022-12-29T01:05:36;1.50;;;1.00;;
54993;SDS011;40891;47.242;8.648;2022-12-29T01:08:02;0.90;;;0.80;;
54993;SDS011;40891;47.242;8.648;2022-12-29T01:10:27;1.67;;;1.03;;
54993;SDS011;40891;47.242;8.648;2022-12-29T01:12:53;1.07;;;0.70;;
54993;SDS011;40891;47.242;8.648;2022-12-29T01:15:18;1.43;;;0.90;;
54993;SDS011;40891;47.242;8.648;2022-12-29T01:17:44;1.60;;;0.90;;
54993;SDS011;40891;47.242;8.648;2022-12-29T01:20:09;1.00;;;0.73;;
54993;SDS011;40891;47.242;8.648;2022-12-29T01:22:36;1.07;;;0.73;;
54993;SDS011;40891;47.242;8.648;2022-12-29T01:25:02;1.03;;;0.60;;
54993;SDS011;40891;47.242;8.648;2022-12-29T01:27:28;2.00;;;0.90;;
54993;SDS011;40891;47.242;8.648;2022-12-29T01:29:53;2.17;;;0.80;;
54993;SDS011;40891;47.242;8.648;2022-12-29T01:32:19;4.60;;;0.93;;
54993;SDS011;40891;47.242;8.648;2022-12-29T01:34:44;1.50;;;0.80;;
54993;SDS011;40891;47.242;8.648;2022-12-29T01:37:10;0.90;;;0.70;;
54993;SDS011;40891;47.242;8.648;2022-12-29T01:39:35;2.73;;;0.80;;
54993;SDS011;40891;47.242;8.648;2022-12-29T01:42:00;1.50;;;0.73;;
54993;SDS011;40891;47.242;8.648;2022-12-29T01:47:15;3.57;;;0.80;;
54993;SDS011;40891;47.242;8.648;2022-12-29T01:49:48;1.17;;;0.70;;
54993;SDS011;40891;47.242;8.648;2022-12-29T01:52:13;0.90;;;0.70;;
54993;SDS011;40891;47.242;8.648;2022-12-29T01:54:40;1.60;;;0.73;;
54993;SDS011;40891;47.242;8.648;2022-12-29T01:57:13;1.57;;;0.60;;
54993;SDS011;40891;47.242;8.648;2022-12-29T01:59:46;1.50;;;0.90;;
54993;SDS011;40891;47.242;8.648;2022-12-29T02:02:16;1.20;;;0.80;;
54993;SDS011;40891;47.242;8.648;2022-12-29T02:04:41;1.53;;;0.70;;
54993;SDS011;40891;47.242;8.648;2022-12-29T02:07:20;1.57;;;0.80;;
54993;SDS011;40891;47.242;8.648;2022-12-29T02:09:48;2.73;;;0.80;;
54993;SDS011;40891;47.242;8.648;2022-12-29T02:12:14;0.80;;;0.70;;
54993;SDS011;40891;47.242;8.648;2022-12-29T02:14:43;0.67;;;0.63;;
54993;SDS011;40891;47.242;8.648;2022-12-29T02:17:21;1.13;;;0.77;;
54993;SDS011;40891;47.242;8.648;2022-12-29T02:31:10;1.70;;;0.90;;
54993;SDS011;40891;47.242;8.648;2022-12-29T02:42:13;1.43;;;0.63;;
54993;SDS011;40891;47.242;8.648;2022-12-29T02:45:04;1.30;;;0.70;;
54993;SDS011;40891;47.242;8.648;2022-12-29T02:50:39;1.30;;;0.80;;
54993;SDS011;40891;47.242;8.648;2022-12-29T02:53:11;4.43;;;0.97;;
54993;SDS011;40891;47.242;8.648;2022-12-29T02:55:46;1.30;;;0.90;;
54993;SDS011;40891;47.242;8.648;2022-12-29T02:58:20;2.00;;;0.90;;
54993;SDS011;40891;47.242;8.648;2022-12-29T03:00:56;1.07;;;0.80;;
54993;SDS011;40891;47.242;8.648;2022-12-29T03:12:03;2.47;;;0.70;;
54993;SDS011;40891;47.242;8.648;2022-12-29T03:15:03;1.40;;;0.90;;
54993;SDS011;40891;47.242;8.648;2022-12-29T03:20:31;1.23;;;0.80;;
54993;SDS011;40891;47.242;8.648;2022-12-29T03:23:03;1.37;;;0.73;;
54993;SDS011;40891;47.242;8.648;2022-12-29T03:25:32;1.27;;;1.10;;
54993;SDS011;40891;47.242;8.648;2022-12-29T03:28:01;1.57;;;0.83;;
54993;SDS011;40891;47.242;8.648;2022-12-29T03:30:31;1.10;;;0.70;;
54993;SDS011;40891;47.242;8.648;2022-12-29T03:33:00;1.03;;;0.80;;
54993;SDS011;40891;47.242;8.648;2022-12-29T03:35:29;1.57;;;0.90;;
54993;SDS011;40891;47.242;8.648;2022-12-29T03:37:59;2.83;;;0.90;;
54993;SDS011;40891;47.242;8.648;2022-12-29T03:40:36;1.43;;;0.80;;
54993;SDS011;40891;47.242;8.648;2022-12-29T03:43:05;2.93;;;0.70;;
54993;SDS011;40891;47.242;8.648;2022-12-29T03:45:31;1.33;;;0.90;;
54993;SDS011;40891;47.242;8.648;2022-12-29T03:47:56;1.47;;;1.00;;
54993;SDS011;40891;47.242;8.648;2022-12-29T03:50:22;1.70;;;0.97;;
54993;SDS011;40891;47.242;8.648;2022-12-29T03:52:47;1.30;;;0.70;;
54993;SDS011;40891;47.242;8.648;2022-12-29T03:55:12;1.03;;;0.70;;
54993;SDS011;40891;47.242;8.648;2022-12-29T03:57:38;1.50;;;0.97;;
54993;SDS011;40891;47.242;8.648;2022-12-29T04:00:04;1.70;;;0.70;;
54993;SDS011;40891;47.242;8.648;2022-12-29T04:02:31;2.60;;;1.60;;
54993;SDS011;40891;47.242;8.648;2022-12-29T04:04:56;1.10;;;0.63;;
54993;SDS011;40891;47.242;8.648;2022-12-29T04:07:21;1.30;;;0.90;;
54993;SDS011;40891;47.242;8.648;2022-12-29T04:09:47;20.30;;;8.97;;
54993;SDS011;40891;47.242;8.648;2022-12-29T04:12:12;5.53;;;3.30;;
54993;SDS011;40891;47.242;8.648;2022-12-29T04:14:39;1.37;;;1.07;;
54993;SDS011;40891;47.242;8.648;2022-12-29T04:17:04;2.20;;;1.00;;
54993;SDS011;40891;47.242;8.648;2022-12-29T04:19:30;1.23;;;0.87;;
54993;SDS011;40891;47.242;8.648;2022-12-29T04:21:55;1.47;;;1.00;;
54993;SDS011;40891;47.242;8.648;2022-12-29T04:24:20;1.33;;;0.80;;
54993;SDS011;40891;47.242;8.648;2022-12-29T04:26:46;1.90;;;0.87;;
54993;SDS011;40891;47.242;8.648;2022-12-29T04:29:11;1.37;;;1.00;;
54993;SDS011;40891;47.242;8.648;2022-12-29T04:31:37;1.63;;;1.10;;
54993;SDS011;40891;47.242;8.648;2022-12-29T04:34:02;2.47;;;0.87;;
54993;SDS011;40891;47.242;8.648;2022-12-29T04:36:28;3.33;;;1.10;;
54993;SDS011;40891;47.242;8.648;2022-12-29T04:38:53;2.20;;;1.30;;
54993;SDS011;40891;47.242;8.648;2022-12-29T04:41:18;2.70;;;0.80;;
54993;SDS011;40891;47.242;8.648;2022-12-29T04:43:44;1.50;;;1.00;;
54993;SDS011;40891;47.242;8.648;2022-12-29T04:46:09;1.43;;;0.90;;
54993;SDS011;40891;47.242;8.648;2022-12-29T04:48:34;2.10;;;1.10;;
54993;SDS011;40891;47.242;8.648;2022-12-29T04:51:00;1.70;;;0.90;;
54993;SDS011;40891;47.242;8.648;2022-12-29T04:53:25;1.40;;;1.10;;
54993;SDS011;40891;47.242;8.648;2022-12-29T04:55:51;2.17;;;1.10;;
54993;SDS011;40891;47.242;8.648;2022-12-29T04:58:17;2.30;;;0.90;;
54993;SDS011;40891;47.242;8.648;2022-12-29T05:00:44;1.37;;;0.93;;
54993;SDS011;40891;47.242;8.648;2022-12-29T05:03:09;2.57;;;0.93;;
54993;SDS011;40891;47.242;8.648;2022-12-29T05:05:34;1.67;;;1.13;;
54993;SDS011;40891;47.242;8.648;2022-12-29T05:08:00;1.40;;;1.00;;
54993;SDS011;40891;47.242;8.648;2022-12-29T05:10:25;3.57;;;1.00;;
54993;SDS011;40891;47.242;8.648;2022-12-29T05:12:50;1.67;;;1.00;;
54993;SDS011;40891;47.242;8.648;2022-12-29T05:15:16;1.17;;;0.90;;
54993;SDS011;40891;47.242;8.648;2022-12-29T05:17:41;2.93;;;1.00;;
54993;SDS011;40891;47.242;8.648;2022-12-29T05:20:07;2.57;;;1.10;;
54993;SDS011;40891;47.242;8.648;2022-12-29T05:22:33;2.43;;;1.10;;
54993;SDS011;40891;47.242;8.648;2022-12-29T05:24:58;1.83;;;0.87;;
54993;SDS011;40891;47.242;8.648;2022-12-29T05:27:24;2.20;;;1.00;;
54993;SDS011;40891;47.242;8.648;2022-12-29T05:29:49;1.57;;;0.80;;
54993;SDS011;40891;47.242;8.648;2022-12-29T05:32:14;2.10;;;0.97;;
54993;SDS011;40891;47.242;8.648;2022-12-29T05:34:40;1.10;;;0.80;;
54993;SDS011;40891;47.242;8.648;2022-12-29T05:37:05;2.87;;;0.73;;
54993;SDS011;40891;47.242;8.648;2022-12-29T05:39:31;2.23;;;0.90;;
54993;SDS011;40891;47.242;8.648;2022-12-29T05:41:56;1.47;;;0.93;;
54993;SDS011;40891;47.242;8.648;2022-12-29T05:44:21;1.07;;;0.83;;
54993;SDS011;40891;47.242;8.648;2022-12-29T05:46:47;1.67;;;1.03;;
54993;SDS011;40891;47.242;8.648;2022-12-29T05:49:12;1.23;;;0.87;;
54993;SDS011;40891;47.242;8.648;2022-12-29T05:51:37;1.13;;;0.80;;
54993;SDS011;40891;47.242;8.648;2022-12-29T05:54:03;1.73;;;1.07;;
54993;SDS011;40891;47.242;8.648;2022-12-29T05:56:28;1.70;;;1.00;;
54993;SDS011;40891;47.242;8.648;2022-12-29T05:58:53;1.50;;;0.90;;
54993;SDS011;40891;47.242;8.648;2022-12-29T06:01:19;1.43;;;0.87;;
54993;SDS011;40891;47.242;8.648;2022-12-29T06:03:44;1.87;;;1.00;;
54993;SDS011;40891;47.242;8.648;2022-12-29T06:06:09;1.30;;;1.00;;
54993;SDS011;40891;47.242;8.648;2022-12-29T06:08:35;5.70;;;1.10;;
54993;SDS011;40891;47.242;8.648;2022-12-29T06:11:00;2.87;;;1.10;;
54993;SDS011;40891;47.242;8.648;2022-12-29T06:13:26;1.37;;;0.90;;
54993;SDS011;40891;47.242;8.648;2022-12-29T06:15:52;1.40;;;0.80;;
54993;SDS011;40891;47.242;8.648;2022-12-29T06:18:18;1.73;;;0.90;;
54993;SDS011;40891;47.242;8.648;2022-12-29T06:20:43;1.77;;;0.90;;
54993;SDS011;40891;47.242;8.648;2022-12-29T06:23:09;1.90;;;0.97;;
54993;SDS011;40891;47.242;8.648;2022-12-29T06:25:36;0.63;;;0.63;;
54993;SDS011;40891;47.242;8.648;2022-12-29T06:28:03;1.37;;;0.80;;
54993;SDS011;40891;47.242;8.648;2022-12-29T06:30:30;0.83;;;0.73;;
54993;SDS011;40891;47.242;8.648;2022-12-29T06:32:55;1.03;;;0.87;;
54993;SDS011;40891;47.242;8.648;2022-12-29T06:35:21;2.23;;;0.80;;
54993;SDS011;40891;47.242;8.648;2022-12-29T06:37:47;1.23;;;0.80;;
54993;SDS011;40891;47.242;8.648;2022-12-29T06:40:13;1.37;;;0.90;;
54993;SDS011;40891;47.242;8.648;2022-12-29T06:42:38;1.60;;;0.80;;
54993;SDS011;40891;47.242;8.648;2022-12-29T06:45:04;5.90;;;1.33;;
54993;SDS011;40891;47.242;8.648;2022-12-29T06:47:32;3.53;;;0.93;;
54993;SDS011;40891;47.242;8.648;2022-12-29T06:49:58;1.97;;;1.10;;
54993;SDS011;40891;47.242;8.648;2022-12-29T06:52:23;1.67;;;1.00;;
54993;SDS011;40891;47.242;8.648;2022-12-29T06:54:49;3.23;;;1.13;;
54993;SDS011;40891;47.242;8.648;2022-12-29T06:57:15;2.23;;;1.13;;
54993;SDS011;40891;47.242;8.648;2022-12-29T06:59:40;2.07;;;1.10;;
54993;SDS011;40891;47.242;8.648;2022-12-29T07:02:06;3.97;;;1.00;;
54993;SDS011;40891;47.242;8.648;2022-12-29T07:04:31;2.23;;;1.10;;
54993;SDS011;40891;47.242;8.648;2022-12-29T07:06:57;1.93;;;1.23;;
54993;SDS011;40891;47.242;8.648;2022-12-29T07:09:22;1.60;;;1.13;;
54993;SDS011;40891;47.242;8.648;2022-12-29T07:11:47;2.83;;;0.80;;
54993;SDS011;40891;47.242;8.648;2022-12-29T07:14:13;3.67;;;1.10;;
54993;SDS011;40891;47.242;8.648;2022-12-29T07:16:38;2.77;;;0.97;;
54993;SDS011;40891;47.242;8.648;2022-12-29T07:19:04;2.33;;;1.03;;
54993;SDS011;40891;47.242;8.648;2022-12-29T07:21:29;3.67;;;0.97;;
54993;SDS011;40891;47.242;8.648;2022-12-29T07:23:55;1.73;;;1.10;;
54993;SDS011;40891;47.242;8.648;2022-12-29T07:26:20;1.30;;;0.93;;
54993;SDS011;40891;47.242;8.648;2022-12-29T07:28:46;3.00;;;1.10;;
54993;SDS011;40891;47.242;8.648;2022-12-29T07:31:16;1.83;;;1.10;;
54993;SDS011;40891;47.242;8.648;2022-12-29T07:33:46;1.10;;;0.80;;
54993;SDS011;40891;47.242;8.648;2022-12-29T07:36:12;3.43;;;1.00;;
54993;SDS011;40891;47.242;8.648;2022-12-29T07:38:39;1.60;;;0.90;;
54993;SDS011;40891;47.242;8.648;2022-12-29T07:41:05;1.67;;;0.90;;
54993;SDS011;40891;47.242;8.648;2022-12-29T07:43:30;1.47;;;0.90;;
54993;SDS011;40891;47.242;8.648;2022-12-29T07:45:56;2.33;;;1.00;;
54993;SDS011;40891;47.242;8.648;2022-12-29T07:48:21;4.97;;;1.00;;
54993;SDS011;40891;47.242;8.648;2022-12-29T07:50:47;2.37;;;1.30;;
54993;SDS011;40891;47.242;8.648;2022-12-29T07:53:12;1.30;;;0.90;;
54993;SDS011;40891;47.242;8.648;2022-12-29T07:55:37;3.60;;;1.27;;
54993;SDS011;40891;47.242;8.648;2022-12-29T07:58:03;3.20;;;1.40;;
54993;SDS011;40891;47.242;8.648;2022-12-29T08:00:29;2.33;;;1.20;;
54993;SDS011;40891;47.242;8.648;2022-12-29T08:02:54;1.53;;;1.23;;
54993;SDS011;40891;47.242;8.648;2022-12-29T08:05:20;2.13;;;1.13;;
54993;SDS011;40891;47.242;8.648;2022-12-29T08:07:45;2.00;;;1.20;;
54993;SDS011;40891;47.242;8.648;2022-12-29T08:10:12;2.03;;;1.17;;
54993;SDS011;40891;47.242;8.648;2022-12-29T08:12:38;3.87;;;1.40;;
54993;SDS011;40891;47.242;8.648;2022-12-29T08:15:05;3.17;;;1.30;;
54993;SDS011;40891;47.242;8.648;2022-12-29T08:17:32;2.77;;;1.60;;
54993;SDS011;40891;47.242;8.648;2022-12-29T08:19:57;3.03;;;0.97;;
54993;SDS011;40891;47.242;8.648;2022-12-29T08:22:23;2.73;;;1.40;;
54993;SDS011;40891;47.242;8.648;2022-12-29T08:24:49;3.43;;;2.20;;
54993;SDS011;40891;47.242;8.648;2022-12-29T08:27:14;5.53;;;1.60;;
54993;SDS011;40891;47.242;8.648;2022-12-29T08:29:39;2.43;;;1.20;;
54993;SDS011;40891;47.242;8.648;2022-12-29T08:32:05;3.13;;;1.30;;
54993;SDS011;40891;47.242;8.648;2022-12-29T08:34:31;3.23;;;1.13;;
54993;SDS011;40891;47.242;8.648;2022-12-29T08:36:57;4.07;;;1.57;;
54993;SDS011;40891;47.242;8.648;2022-12-29T08:39:22;3.50;;;1.83;;
54993;SDS011;40891;47.242;8.648;2022-12-29T08:41:47;3.00;;;1.53;;
54993;SDS011;40891;47.242;8.648;2022-12-29T08:44:13;2.80;;;1.73;;
54993;SDS011;40891;47.242;8.648;2022-12-29T08:46:38;4.23;;;1.60;;
54993;SDS011;40891;47.242;8.648;2022-12-29T08:49:04;4.00;;;1.57;;
54993;SDS011;40891;47.242;8.648;2022-12-29T08:51:29;3.50;;;1.30;;
54993;SDS011;40891;47.242;8.648;2022-12-29T08:53:55;5.30;;;1.40;;
54993;SDS011;40891;47.242;8.648;2022-12-29T08:56:21;4.67;;;1.60;;
54993;SDS011;40891;47.242;8.648;2022-12-29T08:58:48;2.70;;;1.50;;
54993;SDS011;40891;47.242;8.648;2022-12-29T09:01:15;2.30;;;1.40;;
54993;SDS011;40891;47.242;8.648;2022-12-29T09:03:40;2.20;;;1.10;;
54993;SDS011;40891;47.242;8.648;2022-12-29T09:06:05;3.07;;;1.33;;
54993;SDS011;40891;47.242;8.648;2022-12-29T09:08:31;2.23;;;1.20;;
54993;SDS011;40891;47.242;8.648;2022-12-29T09:11:05;2.33;;;1.07;;
54993;SDS011;40891;47.242;8.648;2022-12-29T09:13:36;2.83;;;1.23;;
54993;SDS011;40891;47.242;8.648;2022-12-29T09:16:01;2.97;;;1.17;;
54993;SDS011;40891;47.242;8.648;2022-12-29T09:18:27;1.50;;;0.80;;
54993;SDS011;40891;47.242;8.648;2022-12-29T09:20:59;4.37;;;1.30;;
54993;SDS011;40891;47.242;8.648;2022-12-29T09:23:27;1.97;;;1.07;;
54993;SDS011;40891;47.242;8.648;2022-12-29T09:25:53;1.83;;;1.00;;
54993;SDS011;40891;47.242;8.648;2022-12-29T09:28:19;1.57;;;1.13;;
54993;SDS011;40891;47.242;8.648;2022-12-29T09:30:44;2.67;;;1.30;;
54993;SDS011;40891;47.242;8.648;2022-12-29T09:33:10;1.30;;;1.20;;
54993;SDS011;40891;47.242;8.648;2022-12-29T09:35:35;2.00;;;1.10;;
54993;SDS011;40891;47.242;8.648;2022-12-29T09:38:01;1.80;;;1.00;;
54993;SDS011;40891;47.242;8.648;2022-12-29T09:40:28;2.10;;;1.00;;
54993;SDS011;40891;47.242;8.648;2022-12-29T09:45:36;1.67;;;1.00;;
54993;SDS011;40891;47.242;8.648;2022-12-29T09:48:25;2.83;;;1.10;;
54993;SDS011;40891;47.242;8.648;2022-12-29T09:50:58;1.10;;;1.00;;
54993;SDS011;40891;47.242;8.648;2022-12-29T09:53:29;1.95;;;1.00;;
54993;SDS011;40891;47.242;8.648;2022-12-29T09:56:12;2.63;;;1.10;;
54993;SDS011;40891;47.242;8.648;2022-12-29T09:58:41;1.33;;;0.98;;
54993;SDS011;40891;47.242;8.648;2022-12-29T10:01:29;1.40;;;0.82;;
54993;SDS011;40891;47.242;8.648;2022-12-29T10:03:56;1.50;;;1.10;;
54993;SDS011;40891;47.242;8.648;2022-12-29T10:06:33;0.98;;;0.90;;
54993;SDS011;40891;47.242;8.648;2022-12-29T10:25:19;3.65;;;1.50;;
54993;SDS011;40891;47.242;8.648;2022-12-29T10:27:48;2.50;;;1.30;;
54993;SDS011;40891;47.242;8.648;2022-12-29T10:30:14;2.33;;;1.40;;
54993;SDS011;40891;47.242;8.648;2022-12-29T10:35:22;2.27;;;1.27;;
54993;SDS011;40891;47.242;8.648;2022-12-29T10:40:28;1.97;;;1.10;;
54993;SDS011;40891;47.242;8.648;2022-12-29T10:43:51;2.60;;;1.23;;
54993;SDS011;40891;47.242;8.648;2022-12-29T10:45:56;1.67;;;1.13;;
54993;SDS011;40891;47.242;8.648;2022-12-29T10:48:28;2.13;;;1.30;;
54993;SDS011;40891;47.242;8.648;2022-12-29T10:50:56;1.92;;;1.10;;
54993;SDS011;40891;47.242;8.648;2022-12-29T10:53:26;1.65;;;1.20;;
54993;SDS011;40891;47.242;8.648;2022-12-29T10:55:58;3.50;;;1.40;;
54993;SDS011;40891;47.242;8.648;2022-12-29T10:58:26;2.13;;;1.37;;
54993;SDS011;40891;47.242;8.648;2022-12-29T11:00:54;4.93;;;1.63;;
54993;SDS011;40891;47.242;8.648;2022-12-29T11:08:31;2.40;;;1.60;;
54993;SDS011;40891;47.242;8.648;2022-12-29T11:11:01;5.72;;;1.73;;
54993;SDS011;40891;47.242;8.648;2022-12-29T11:13:29;3.15;;;1.55;;
54993;SDS011;40891;47.242;8.648;2022-12-29T11:15:56;2.80;;;1.40;;
54993;SDS011;40891;47.242;8.648;2022-12-29T11:18:32;3.05;;;1.17;;
54993;SDS011;40891;47.242;8.648;2022-12-29T11:21:02;1.65;;;1.08;;
54993;SDS011;40891;47.242;8.648;2022-12-29T11:23:34;4.05;;;1.30;;
54993;SDS011;40891;47.242;8.648;2022-12-29T11:31:39;4.72;;;1.30;;
54993;SDS011;40891;47.242;8.648;2022-12-29T11:34:16;3.63;;;1.30;;
54993;SDS011;40891;47.242;8.648;2022-12-29T11:36:43;3.72;;;1.10;;
54993;SDS011;40891;47.242;8.648;2022-12-29T11:39:18;1.50;;;0.90;;
54993;SDS011;40891;47.242;8.648;2022-12-29T11:41:57;5.97;;;1.40;;
54993;SDS011;40891;47.242;8.648;2022-12-29T11:44:23;2.22;;;1.40;;
54993;SDS011;40891;47.242;8.648;2022-12-29T11:46:50;3.20;;;1.45;;
54993;SDS011;40891;47.242;8.648;2022-12-29T11:49:20;5.95;;;1.80;;
54993;SDS011;40891;47.242;8.648;2022-12-29T11:51:48;2.63;;;1.40;;
54993;SDS011;40891;47.242;8.648;2022-12-29T11:54:18;5.55;;;1.60;;
54993;SDS011;40891;47.242;8.648;2022-12-29T11:56:47;2.15;;;1.20;;
54993;SDS011;40891;47.242;8.648;2022-12-29T12:02:03;2.58;;;1.50;;
54993;SDS011;40891;47.242;8.648;2022-12-29T12:04:36;3.25;;;1.67;;
54993;SDS011;40891;47.242;8.648;2022-12-29T12:07:13;4.50;;;1.52;;
54993;SDS011;40891;47.242;8.648;2022-12-29T12:09:49;4.45;;;1.90;;
54993;SDS011;40891;47.242;8.648;2022-12-29T12:12:31;5.13;;;1.60;;
54993;SDS011;40891;47.242;8.648;2022-12-29T12:15:00;2.90;;;1.57;;
54993;SDS011;40891;47.242;8.648;2022-12-29T12:17:38;2.45;;;1.23;;
54993;SDS011;40891;47.242;8.648;2022-12-29T12:22:54;2.88;;;1.27;;
54993;SDS011;40891;47.242;8.648;2022-12-29T12:25:53;3.33;;;1.60;;
54993;SDS011;40891;47.242;8.648;2022-12-29T12:28:26;3.53;;;1.70;;
54993;SDS011;40891;47.242;8.648;2022-12-29T12:30:59;2.75;;;1.48;;
54993;SDS011;40891;47.242;8.648;2022-12-29T12:33:31;2.63;;;1.67;;
54993;SDS011;40891;47.242;8.648;2022-12-29T12:36:26;2.60;;;1.25;;
54993;SDS011;40891;47.242;8.648;2022-12-29T12:39:11;4.63;;;1.42;;
54993;SDS011;40891;47.242;8.648;2022-12-29T12:44:42;3.15;;;1.40;;
54993;SDS011;40891;47.242;8.648;2022-12-29T12:47:18;4.72;;;1.67;;
54993;SDS011;40891;47.242;8.648;2022-12-29T12:58:41;3.33;;;1.77;;
54993;SDS011;40891;47.242;8.648;2022-12-29T13:01:32;3.40;;;1.20;;
54993;SDS011;40891;47.242;8.648;2022-12-29T13:07:37;5.13;;;1.50;;
54993;SDS011;40891;47.242;8.648;2022-12-29T13:18:17;2.50;;;1.23;;
54993;SDS011;40891;47.242;8.648;2022-12-29T13:23:32;6.97;;;3.10;;
54993;SDS011;40891;47.242;8.648;2022-12-29T13:34:41;3.30;;;1.52;;
54993;SDS011;40891;47.242;8.648;2022-12-29T13:37:27;3.35;;;1.52;;
54993;SDS011;40891;47.242;8.648;2022-12-29T13:40:02;5.30;;;1.80;;
54993;SDS011;40891;47.242;8.648;2022-12-29T13:42:35;3.20;;;1.50;;
54993;SDS011;40891;47.242;8.648;2022-12-29T13:45:02;6.57;;;1.88;;
54993;SDS011;40891;47.242;8.648;2022-12-29T13:47:36;5.93;;;1.75;;
54993;SDS011;40891;47.242;8.648;2022-12-29T13:50:08;4.25;;;1.92;;
54993;SDS011;40891;47.242;8.648;2022-12-29T13:52:50;3.10;;;2.00;;
54993;SDS011;40891;47.242;8.648;2022-12-29T13:58:12;3.80;;;1.70;;
54993;SDS011;40891;47.242;8.648;2022-12-29T14:00:57;6.70;;;2.20;;
54993;SDS011;40891;47.242;8.648;2022-12-29T14:08:57;4.43;;;1.83;;
54993;SDS011;40891;47.242;8.648;2022-12-29T14:11:34;2.77;;;1.60;;
54993;SDS011;40891;47.242;8.648;2022-12-29T14:16:53;3.20;;;1.60;;
54993;SDS011;40891;47.242;8.648;2022-12-29T14:19:24;3.40;;;1.70;;
54993;SDS011;40891;47.242;8.648;2022-12-29T14:21:54;4.30;;;1.60;;
54993;SDS011;40891;47.242;8.648;2022-12-29T14:27:00;3.07;;;1.60;;
54993;SDS011;40891;47.242;8.648;2022-12-29T14:32:17;1.73;;;1.33;;
54993;SDS011;40891;47.242;8.648;2022-12-29T14:34:55;3.20;;;1.50;;
54993;SDS011;40891;47.242;8.648;2022-12-29T14:37:31;3.97;;;1.40;;
54993;SDS011;40891;47.242;8.648;2022-12-29T14:42:45;3.70;;;1.70;;
54993;SDS011;40891;47.242;8.648;2022-12-29T14:50:13;2.03;;;1.30;;
54993;SDS011;40891;47.242;8.648;2022-12-29T14:52:55;2.97;;;1.40;;
54993;SDS011;40891;47.242;8.648;2022-12-29T14:58:04;4.30;;;1.70;;
54993;SDS011;40891;47.242;8.648;2022-12-29T15:00:35;2.67;;;1.43;;
54993;SDS011;40891;47.242;8.648;2022-12-29T15:08:03;3.30;;;1.37;;
54993;SDS011;40891;47.242;8.648;2022-12-29T15:10:34;2.43;;;1.30;;
54993;SDS011;40891;47.242;8.648;2022-12-29T15:13:10;2.17;;;1.40;;
54993;SDS011;40891;47.242;8.648;2022-12-29T15:15:40;2.30;;;1.50;;
54993;SDS011;40891;47.242;8.648;2022-12-29T15:18:22;4.83;;;1.50;;
54993;SDS011;40891;47.242;8.648;2022-12-29T15:21:03;6.07;;;1.60;;
54993;SDS011;40891;47.242;8.648;2022-12-29T15:23:31;3.00;;;1.30;;
54993;SDS011;40891;47.242;8.648;2022-12-29T15:26:00;3.00;;;1.30;;
54993;SDS011;40891;47.242;8.648;2022-12-29T15:28:26;3.23;;;1.60;;
54993;SDS011;40891;47.242;8.648;2022-12-29T15:30:57;5.13;;;1.50;;
54993;SDS011;40891;47.242;8.648;2022-12-29T15:33:29;3.37;;;1.60;;
54993;SDS011;40891;47.242;8.648;2022-12-29T15:35:55;4.97;;;1.70;;
54993;SDS011;40891;47.242;8.648;2022-12-29T15:38:23;4.13;;;1.60;;
54993;SDS011;40891;47.242;8.648;2022-12-29T15:40:52;2.53;;;1.50;;
54993;SDS011;40891;47.242;8.648;2022-12-29T15:45:47;3.03;;;1.60;;
54993;SDS011;40891;47.242;8.648;2022-12-29T15:48:19;1.67;;;1.23;;
54993;SDS011;40891;47.242;8.648;2022-12-29T15:50:47;1.63;;;1.30;;
54993;SDS011;40891;47.242;8.648;2022-12-29T15:53:18;2.03;;;1.50;;
54993;SDS011;40891;47.242;8.648;2022-12-29T15:55:53;3.37;;;1.50;;
54993;SDS011;40891;47.242;8.648;2022-12-29T15:58:24;4.73;;;1.30;;
54993;SDS011;40891;47.242;8.648;2022-12-29T16:00:52;2.23;;;1.40;;
54993;SDS011;40891;47.242;8.648;2022-12-29T16:03:23;4.27;;;1.40;;
54993;SDS011;40891;47.242;8.648;2022-12-29T16:05:56;2.83;;;1.40;;
54993;SDS011;40891;47.242;8.648;2022-12-29T16:08:33;2.93;;;1.40;;
54993;SDS011;40891;47.242;8.648;2022-12-29T16:11:02;5.03;;;1.70;;
54993;SDS011;40891;47.242;8.648;2022-12-29T16:13:49;4.43;;;1.60;;
54993;SDS011;40891;47.242;8.648;2022-12-29T16:16:27;6.57;;;2.50;;
54993;SDS011;40891;47.242;8.648;2022-12-29T16:18:56;4.03;;;2.37;;
54993;SDS011;40891;47.242;8.648;2022-12-29T16:21:27;5.70;;;2.43;;
54993;SDS011;40891;47.242;8.648;2022-12-29T16:23:59;6.40;;;2.50;;
54993;SDS011;40891;47.242;8.648;2022-12-29T16:26:27;6.77;;;2.53;;
54993;SDS011;40891;47.242;8.648;2022-12-29T16:28:56;5.87;;;2.67;;
54993;SDS011;40891;47.242;8.648;2022-12-29T16:33:56;4.87;;;2.20;;
54993;SDS011;40891;47.242;8.648;2022-12-29T16:36:23;5.40;;;2.30;;
54993;SDS011;40891;47.242;8.648;2022-12-29T16:38:51;6.90;;;2.87;;
54993;SDS011;40891;47.242;8.648;2022-12-29T16:41:47;6.80;;;2.53;;
54993;SDS011;40891;47.242;8.648;2022-12-29T16:47:01;4.97;;;2.50;;
54993;SDS011;40891;47.242;8.648;2022-12-29T16:49:33;6.87;;;2.37;;
54993;SDS011;40891;47.242;8.648;2022-12-29T16:51:59;5.37;;;2.73;;
54993;SDS011;40891;47.242;8.648;2022-12-29T16:54:33;8.23;;;3.13;;
54993;SDS011;40891;47.242;8.648;2022-12-29T16:57:01;10.70;;;3.33;;
54993;SDS011;40891;47.242;8.648;2022-12-29T16:59:38;7.37;;;3.83;;
54993;SDS011;40891;47.242;8.648;2022-12-29T17:02:10;5.77;;;3.57;;
54993;SDS011;40891;47.242;8.648;2022-12-29T17:04:40;7.13;;;3.37;;
54993;SDS011;40891;47.242;8.648;2022-12-29T17:07:15;7.10;;;3.07;;
54993;SDS011;40891;47.242;8.648;2022-12-29T17:09:42;5.80;;;2.90;;
54993;SDS011;40891;47.242;8.648;2022-12-29T17:12:07;6.17;;;2.90;;
54993;SDS011;40891;47.242;8.648;2022-12-29T17:14:51;5.77;;;3.00;;
54993;SDS011;40891;47.242;8.648;2022-12-29T17:17:36;10.67;;;2.93;;
54993;SDS011;40891;47.242;8.648;2022-12-29T17:20:16;7.67;;;3.00;;
54993;SDS011;40891;47.242;8.648;2022-12-29T17:22:45;7.13;;;2.97;;
54993;SDS011;40891;47.242;8.648;2022-12-29T17:25:11;6.83;;;2.87;;
54993;SDS011;40891;47.242;8.648;2022-12-29T17:27:42;4.93;;;2.80;;
54993;SDS011;40891;47.242;8.648;2022-12-29T17:32:39;5.53;;;2.47;;
54993;SDS011;40891;47.242;8.648;2022-12-29T17:35:05;4.07;;;2.50;;
54993;SDS011;40891;47.242;8.648;2022-12-29T17:37:37;5.90;;;3.20;;